Time;durP1;ratioP1;P1;durP2;ratioP2;P2;SDS_P1;SDS_P2;PMS_P1;PMS_P2;Temp;Humidity;BMP_temperature;BMP_pressure;BME280_temperature;BME280_humidity;BME280_pressure;Samples;Min_cycle;Max_cycle;Signal;HPM_P1;HPM_P2
2021/06/05 00:01:09;;;;;;;7.30;6.18;;;18.90;84.70;;;;;;4995069;28;20038;-73
2021/06/05 00:03:34;;;;;;;12.25;6.75;;;18.90;84.90;;;;;;5018769;28;20042;-73
2021/06/05 00:06:02;;;;;;;8.02;6.00;;;18.90;84.90;;;;;;5012251;28;20033;-79
2021/06/05 00:08:30;;;;;;;8.57;6.55;;;18.80;85.00;;;;;;5012250;28;20386;-78
2021/06/05 00:11:01;;;;;;;6.72;6.03;;;18.80;85.00;;;;;;4996283;28;20030;-78
2021/06/05 00:13:32;;;;;;;6.90;6.05;;;18.80;85.00;;;;;;5030441;28;20022;-78
2021/06/05 00:15:58;;;;;;;8.25;6.38;;;18.70;85.00;;;;;;4998532;28;20096;-79
2021/06/05 00:18:24;;;;;;;8.85;6.80;;;18.70;85.20;;;;;;5031314;28;20025;-78
2021/06/05 00:20:50;;;;;;;8.45;6.10;;;18.70;85.20;;;;;;5012290;28;20512;-79
2021/06/05 00:23:18;;;;;;;6.68;5.88;;;18.70;85.20;;;;;;5013028;28;20022;-79
2021/06/05 00:25:44;;;;;;;8.05;6.60;;;18.70;85.30;;;;;;5011788;28;20053;-79
2021/06/05 00:28:10;;;;;;;8.13;5.50;;;18.60;85.30;;;;;;5031078;28;20096;-79
2021/06/05 00:30:36;;;;;;;8.00;6.60;;;18.60;85.40;;;;;;5010400;28;20022;-78
2021/06/05 00:33:03;;;;;;;9.68;6.57;;;18.60;85.40;;;;;;5009046;28;20018;-78
2021/06/05 00:35:30;;;;;;;8.18;5.85;;;18.60;85.50;;;;;;5013392;28;20394;-79
2021/06/05 00:37:56;;;;;;;8.90;6.13;;;18.60;85.60;;;;;;5032346;28;20037;-78
2021/06/05 00:40:26;;;;;;;7.25;6.38;;;18.60;85.70;;;;;;5017296;28;20037;-75
2021/06/05 00:42:54;;;;;;;6.88;6.18;;;18.60;85.80;;;;;;5012466;28;20363;-76
2021/06/05 00:45:21;;;;;;;8.02;6.18;;;18.60;85.80;;;;;;5000982;28;20053;-75
2021/06/05 00:47:49;;;;;;;10.20;6.13;;;18.50;85.80;;;;;;5031996;28;20021;-75
2021/06/05 00:50:16;;;;;;;8.65;6.65;;;18.50;85.80;;;;;;5014687;28;20137;-75
2021/06/05 00:52:44;;;;;;;8.95;6.45;;;18.50;86.00;;;;;;5012059;28;20026;-75
2021/06/05 00:55:13;;;;;;;6.82;5.45;;;18.50;86.00;;;;;;5002643;28;20036;-76
2021/06/05 00:57:39;;;;;;;8.27;6.43;;;18.50;86.10;;;;;;5010807;28;20386;-75
2021/06/05 01:00:18;;;;;;;7.32;6.32;;;18.40;86.00;;;;;;5012008;28;20033;-75
2021/06/05 01:02:44;;;;;;;7.18;6.20;;;18.50;86.20;;;;;;5011994;28;20376;-75
2021/06/05 01:05:10;;;;;;;8.80;6.90;;;18.50;86.00;;;;;;5009803;28;20053;-75
2021/06/05 01:07:36;;;;;;;7.78;6.30;;;18.40;86.10;;;;;;5012188;28;20026;-75
2021/06/05 01:10:20;;;;;;;8.23;6.30;;;18.40;86.30;;;;;;4999451;28;20069;-75
2021/06/05 01:13:12;;;;;;;11.20;6.70;;;18.40;86.30;;;;;;4998112;28;20386;-76
2021/06/05 01:15:46;;;;;;;8.57;6.57;;;18.40;86.30;;;;;;5010689;28;20041;-75
2021/06/05 01:18:27;;;;;;;8.80;6.00;;;18.40;86.40;;;;;;5011981;28;20486;-75
2021/06/05 01:21:30;;;;;;;8.88;5.70;;;18.30;86.40;;;;;;5011570;28;20053;-76
2021/06/05 01:24:08;;;;;;;8.50;6.65;;;18.30;86.40;;;;;;5013861;28;20521;-75
2021/06/05 01:26:36;;;;;;;7.25;6.43;;;18.30;86.40;;;;;;5013669;28;20069;-75
2021/06/05 01:29:21;;;;;;;8.63;6.28;;;18.30;86.70;;;;;;5024865;28;20478;-75
2021/06/05 01:31:54;;;;;;;7.60;6.80;;;18.30;86.80;;;;;;5014823;28;20036;-75
2021/06/05 01:34:21;;;;;;;12.25;6.88;;;18.30;87.20;;;;;;5021179;28;20036;-77
2021/06/05 01:36:53;;;;;;;7.53;6.20;;;18.20;87.10;;;;;;5014163;28;20021;-76
2021/06/05 01:39:26;;;;;;;10.70;6.95;;;18.20;87.20;;;;;;5022177;28;20054;-75
2021/06/05 01:41:52;;;;;;;8.65;6.38;;;18.20;87.40;;;;;;5000014;28;20403;-75
2021/06/05 01:44:19;;;;;;;8.10;6.53;;;18.20;87.30;;;;;;5021924;28;20121;-75
2021/06/05 01:46:47;;;;;;;8.43;6.63;;;18.20;87.40;;;;;;5018563;28;20025;-76
2021/06/05 01:49:14;;;;;;;7.20;6.28;;;18.20;87.60;;;;;;5027462;28;20026;-75
2021/06/05 01:51:45;;;;;;;7.03;6.22;;;18.10;87.60;;;;;;5020293;28;20436;-75
2021/06/05 01:54:16;;;;;;;9.05;6.72;;;18.10;87.70;;;;;;5041335;28;20033;-75
2021/06/05 01:56:47;;;;;;;8.25;6.80;;;18.10;87.80;;;;;;5039955;28;20038;-76
2021/06/05 01:59:15;;;;;;;8.57;6.97;;;18.10;87.80;;;;;;5015898;28;20029;-76
2021/06/05 02:01:42;;;;;;;10.48;6.97;;;18.10;88.00;;;;;;5014068;28;20046;-76
2021/06/05 02:04:08;;;;;;;9.15;6.72;;;18.00;88.00;;;;;;5014751;28;20038;-76
2021/06/05 02:06:34;;;;;;;8.00;7.03;;;18.00;88.20;;;;;;5013423;28;20073;-76
2021/06/05 02:09:02;;;;;;;8.68;6.63;;;18.10;88.30;;;;;;5026366;28;20041;-77
2021/06/05 02:11:31;;;;;;;8.18;6.85;;;18.00;88.20;;;;;;5030684;28;20045;-77
2021/06/05 02:14:03;;;;;;;8.75;7.55;;;18.00;88.30;;;;;;5016185;28;20382;-76
2021/06/05 02:16:34;;;;;;;9.10;6.85;;;18.00;88.30;;;;;;4999641;28;20105;-76
2021/06/05 02:19:32;;;;;;;8.32;6.80;;;17.90;88.30;;;;;;5024670;28;20083;-77
2021/06/05 02:22:02;;;;;;;10.38;6.57;;;17.90;88.40;;;;;;5025832;28;20431;-77
2021/06/05 02:24:35;;;;;;;10.30;7.07;;;17.90;88.50;;;;;;5013075;28;20041;-76
2021/06/05 02:27:01;;;;;;;8.82;6.50;;;17.90;88.80;;;;;;5003052;28;20029;-76
2021/06/05 02:29:31;;;;;;;7.93;7.13;;;17.80;88.90;;;;;;5025875;28;20033;-77
2021/06/05 02:31:57;;;;;;;8.43;6.75;;;17.80;89.10;;;;;;5013624;28;20026;-79
2021/06/05 02:34:26;;;;;;;8.15;6.57;;;17.80;89.30;;;;;;5027081;28;20026;-77
2021/06/05 02:36:57;;;;;;;8.95;7.88;;;17.80;89.30;;;;;;5027272;28;20091;-78
2021/06/05 02:39:23;;;;;;;10.98;7.60;;;17.80;89.50;;;;;;5015825;28;20034;-77
2021/06/05 02:41:51;;;;;;;13.13;7.70;;;17.80;89.50;;;;;;5008530;28;20050;-77
2021/06/05 02:44:20;;;;;;;13.38;8.27;;;17.80;89.60;;;;;;5021279;28;20381;-77
2021/06/05 02:46:47;;;;;;;10.02;6.65;;;17.80;89.70;;;;;;5027946;28;20033;-77
2021/06/05 02:49:18;;;;;;;9.65;7.22;;;17.80;89.50;;;;;;5014885;28;20029;-78
2021/06/05 02:51:47;;;;;;;12.00;6.47;;;17.80;89.60;;;;;;5010565;28;20073;-79
2021/06/05 02:54:13;;;;;;;7.68;6.30;;;17.80;89.50;;;;;;5000402;28;20063;-78
2021/06/05 02:56:39;;;;;;;9.25;6.70;;;17.80;89.40;;;;;;5014727;28;20036;-78
2021/06/05 02:59:05;;;;;;;10.85;6.80;;;17.80;89.40;;;;;;5013955;28;20030;-78
2021/06/05 03:01:30;;;;;;;8.30;7.18;;;17.80;89.40;;;;;;5014741;28;20046;-78
2021/06/05 03:03:56;;;;;;;7.40;6.03;;;17.80;89.50;;;;;;5013784;28;20428;-78
2021/06/05 03:06:21;;;;;;;9.90;7.05;;;17.80;89.50;;;;;;5013815;28;20036;-78
2021/06/05 03:08:47;;;;;;;9.45;7.57;;;17.80;89.60;;;;;;4994258;28;20026;-78
2021/06/05 03:11:17;;;;;;;8.38;7.22;;;17.80;89.70;;;;;;4995227;28;20519;-79
2021/06/05 03:13:43;;;;;;;9.50;7.35;;;17.80;89.70;;;;;;5013134;28;20026;-78
2021/06/05 03:16:12;;;;;;;8.25;6.50;;;17.80;89.60;;;;;;5020958;28;20029;-79
2021/06/05 03:18:37;;;;;;;9.38;6.78;;;17.80;89.50;;;;;;4995276;28;20038;-79
2021/06/05 03:21:06;;;;;;;10.57;6.50;;;17.80;89.50;;;;;;5002847;28;20041;-79
2021/06/05 03:23:32;;;;;;;7.72;6.40;;;17.80;89.60;;;;;;5011977;28;20040;-79
2021/06/05 03:25:58;;;;;;;8.48;6.60;;;17.80;89.60;;;;;;5013883;28;20030;-78
2021/06/05 03:28:28;;;;;;;10.13;7.03;;;17.70;89.70;;;;;;5012141;28;20474;-79
2021/06/05 03:30:55;;;;;;;8.85;6.75;;;17.80;89.90;;;;;;5028772;28;20053;-78
2021/06/05 03:33:22;;;;;;;9.55;6.82;;;17.80;89.90;;;;;;5014729;28;20504;-79
2021/06/05 03:35:49;;;;;;;7.93;6.45;;;17.70;89.80;;;;;;5033440;28;20038;-80
2021/06/05 03:38:15;;;;;;;9.25;6.47;;;17.80;89.90;;;;;;5003997;28;20542;-78
2021/06/05 03:40:41;;;;;;;9.95;7.05;;;17.80;89.90;;;;;;5033016;28;20057;-79
2021/06/05 03:43:08;;;;;;;7.93;6.72;;;17.80;89.90;;;;;;5016352;28;20073;-79
2021/06/05 03:45:34;;;;;;;10.10;7.35;;;17.80;89.90;;;;;;5029016;28;20421;-80
2021/06/05 03:48:00;;;;;;;10.57;6.60;;;17.80;89.90;;;;;;5009793;28;20025;-80
2021/06/05 03:50:32;;;;;;;9.02;6.53;;;17.80;89.70;;;;;;5011673;28;20064;-79
2021/06/05 03:52:58;;;;;;;11.88;6.70;;;17.80;89.60;;;;;;5011790;28;20040;-79
2021/06/05 03:55:24;;;;;;;7.35;6.30;;;17.80;89.60;;;;;;5013435;28;20022;-79
2021/06/05 03:57:50;;;;;;;9.02;6.47;;;17.90;89.60;;;;;;5015104;28;20034;-79
2021/06/05 04:00:21;;;;;;;8.25;6.80;;;17.90;89.40;;;;;;5033016;28;20117;-77
2021/06/05 04:02:47;;;;;;;8.35;6.93;;;17.90;89.30;;;;;;5018545;28;20029;-77
2021/06/05 04:05:13;;;;;;;9.77;7.50;;;17.90;89.50;;;;;;5032481;28;20033;-78
2021/06/05 04:07:39;;;;;;;7.38;6.55;;;18.00;89.60;;;;;;5022631;28;20033;-77
2021/06/05 04:10:06;;;;;;;7.82;6.63;;;18.00;89.70;;;;;;5032240;28;20035;-76
2021/06/05 04:12:31;;;;;;;9.88;6.65;;;18.10;89.60;;;;;;5021364;28;20483;-76
2021/06/05 04:14:57;;;;;;;7.32;6.32;;;18.10;89.30;;;;;;5031782;28;20040;-77
2021/06/05 04:17:22;;;;;;;8.43;6.43;;;18.10;88.90;;;;;;5014652;28;20215;-76
2021/06/05 04:19:48;;;;;;;7.82;6.20;;;18.20;88.90;;;;;;5015861;28;20022;-76
2021/06/05 04:22:13;;;;;;;7.40;6.15;;;18.20;89.00;;;;;;5031047;28;20109;-77
2021/06/05 04:24:39;;;;;;;9.60;6.05;;;18.20;88.80;;;;;;5020430;28;20375;-77
2021/06/05 04:27:06;;;;;;;6.90;6.20;;;18.30;89.00;;;;;;5008711;28;20030;-76
2021/06/05 04:29:32;;;;;;;7.88;6.22;;;18.40;88.80;;;;;;5010986;28;20378;-77
2021/06/05 04:31:58;;;;;;;8.63;5.93;;;18.40;88.60;;;;;;5013353;28;20026;-77
2021/06/05 04:34:23;;;;;;;8.43;5.90;;;18.40;88.10;;;;;;5012354;28;20097;-77
2021/06/05 04:36:51;;;;;;;7.63;6.07;;;18.50;88.10;;;;;;5013970;28;20402;-77
2021/06/05 04:39:16;;;;;;;7.68;6.05;;;18.50;88.00;;;;;;5012612;28;20030;-76
2021/06/05 04:41:42;;;;;;;7.70;5.97;;;18.50;87.80;;;;;;5016302;28;20052;-77
2021/06/05 04:44:07;;;;;;;8.23;5.82;;;18.60;87.90;;;;;;5010419;28;20076;-77
2021/06/05 04:46:33;;;;;;;8.70;6.22;;;18.70;87.70;;;;;;5026939;28;20120;-77
2021/06/05 04:48:58;;;;;;;7.28;5.75;;;18.70;87.70;;;;;;5013130;28;20037;-77
2021/06/05 04:51:25;;;;;;;7.35;5.45;;;18.80;87.10;;;;;;5029023;28;20028;-77
2021/06/05 04:53:51;;;;;;;7.57;5.88;;;18.80;86.80;;;;;;5011883;28;20045;-77
2021/06/05 04:56:23;;;;;;;6.57;5.30;;;18.90;86.80;;;;;;5029311;28;20108;-77
2021/06/05 04:58:49;;;;;;;6.70;5.38;;;18.90;86.70;;;;;;5012298;28;20037;-77
2021/06/05 05:01:14;;;;;;;7.85;6.30;;;19.00;86.70;;;;;;5028546;28;20044;-76
2021/06/05 05:03:40;;;;;;;7.75;6.07;;;19.10;86.50;;;;;;5010055;28;20042;-76
2021/06/05 05:06:24;;;;;;;7.93;5.90;;;19.10;86.20;;;;;;5010113;28;20045;-76
2021/06/05 05:09:12;;;;;;;8.60;5.55;;;19.20;85.80;;;;;;5015042;28;20033;-75
2021/06/05 05:11:57;;;;;;;7.80;5.00;;;19.30;85.40;;;;;;5022574;28;20033;-77
2021/06/05 05:14:41;;;;;;;9.02;4.95;;;19.30;85.20;;;;;;5016547;28;20095;-77
2021/06/05 05:17:25;;;;;;;6.40;5.17;;;19.40;84.70;;;;;;5001702;28;20105;-77
2021/06/05 05:20:12;;;;;;;5.88;4.88;;;19.50;84.60;;;;;;5020923;28;20083;-77
2021/06/05 05:22:57;;;;;;;8.23;5.53;;;19.50;84.50;;;;;;5003197;28;20041;-77
2021/06/05 05:25:43;;;;;;;6.13;4.68;;;19.60;84.30;;;;;;5010660;28;20056;-77
2021/06/05 05:28:27;;;;;;;7.53;5.47;;;19.70;84.00;;;;;;5010896;28;20041;-77
2021/06/05 05:31:15;;;;;;;6.07;4.90;;;19.80;83.60;;;;;;5011752;28;20291;-77
2021/06/05 05:34:00;;;;;;;6.32;4.57;;;19.90;83.50;;;;;;5027747;28;20444;-76
2021/06/05 05:36:44;;;;;;;5.97;4.57;;;19.90;83.00;;;;;;5009452;28;20053;-77
2021/06/05 05:39:28;;;;;;;9.27;5.38;;;20.00;83.00;;;;;;5011813;28;20072;-78
2021/06/05 05:42:12;;;;;;;7.80;5.27;;;20.10;82.70;;;;;;5007917;28;20040;-79
2021/06/05 05:44:57;;;;;;;6.72;4.88;;;20.20;82.40;;;;;;5010421;28;20326;-79
2021/06/05 05:47:41;;;;;;;7.93;5.38;;;20.30;82.30;;;;;;5001377;28;20084;-78
2021/06/05 05:50:28;;;;;;;6.47;4.68;;;20.30;82.20;;;;;;5031526;28;20040;-78
2021/06/05 05:53:13;;;;;;;5.68;4.57;;;20.40;81.70;;;;;;5025173;28;20083;-80
2021/06/05 05:55:58;;;;;;;6.00;4.72;;;20.40;81.20;;;;;;5030476;28;20140;-80
2021/06/05 05:58:45;;;;;;;7.20;4.50;;;20.60;81.20;;;;;;5010717;28;20040;-80
2021/06/05 06:01:30;;;;;;;7.07;4.32;;;20.60;80.70;;;;;;5019014;28;20052;-79
2021/06/05 06:04:15;;;;;;;6.68;4.78;;;20.70;80.00;;;;;;5011251;28;20545;-78
2021/06/05 06:06:59;;;;;;;6.83;4.23;;;20.80;79.40;;;;;;5008774;28;20060;-80
2021/06/05 06:09:43;;;;;;;5.82;4.50;;;20.80;79.10;;;;;;5011584;28;20100;-78
2021/06/05 06:12:27;;;;;;;10.65;4.97;;;20.90;78.40;;;;;;5017522;28;20064;-79
2021/06/05 06:15:14;;;;;;;6.13;4.47;;;20.90;78.20;;;;;;5011135;28;20040;-80
2021/06/05 06:17:59;;;;;;;6.75;4.90;;;21.00;78.30;;;;;;5005060;28;20556;-80
2021/06/05 06:20:45;;;;;;;;;;;21.10;77.60;;;;;;4995365;28;20088;-80
2021/06/05 06:23:31;;;;;;;6.88;4.60;;;21.10;78.10;;;;;;5003919;28;19920;-77
2021/06/05 06:26:23;;;;;;;7.88;5.72;;;21.20;77.00;;;;;;4992917;28;20394;-75
2021/06/05 06:28:48;;;;;;;7.32;4.32;;;21.30;77.40;;;;;;5001145;28;20054;-75
2021/06/05 06:31:17;;;;;;;8.00;4.70;;;21.30;76.70;;;;;;5000355;28;20057;-73
2021/06/05 06:33:43;;;;;;;7.18;4.50;;;21.40;76.60;;;;;;5009832;28;20433;-74
2021/06/05 06:36:09;;;;;;;5.85;4.78;;;21.50;75.80;;;;;;5002733;28;20201;-76
2021/06/05 06:38:45;;;;;;;9.02;5.53;;;21.50;75.70;;;;;;5008291;28;20045;-76
2021/06/05 06:41:14;;;;;;;5.65;4.38;;;21.60;75.50;;;;;;5002227;28;20046;-77
2021/06/05 06:43:40;;;;;;;7.15;4.97;;;21.70;75.10;;;;;;5008115;28;20038;-76
2021/06/05 06:46:17;;;;;;;5.35;4.38;;;21.80;74.90;;;;;;5002283;28;20022;-77
2021/06/05 06:48:43;;;;;;;7.43;4.57;;;21.80;74.70;;;;;;5028695;28;20487;-76
2021/06/05 06:51:08;;;;;;;5.35;4.00;;;21.90;74.70;;;;;;5025495;28;20026;-76
2021/06/05 06:53:36;;;;;;;6.53;4.43;;;22.00;74.50;;;;;;5011835;28;20033;-77
2021/06/05 06:56:03;;;;;;;5.15;4.40;;;22.10;74.30;;;;;;5012728;28;20037;-77
2021/06/05 06:58:29;;;;;;;8.20;5.10;;;22.20;73.70;;;;;;5003149;28;20032;-76
2021/06/05 07:00:55;;;;;;;4.75;3.97;;;22.30;73.60;;;;;;5014227;28;20192;-76
2021/06/05 07:03:20;;;;;;;6.50;4.82;;;22.30;73.20;;;;;;4996937;28;20398;-76
2021/06/05 07:05:46;;;;;;;6.25;4.95;;;22.30;73.00;;;;;;5003470;28;20037;-77
2021/06/05 07:08:20;;;;;;;6.25;4.40;;;22.40;73.00;;;;;;5011457;28;20018;-76
2021/06/05 07:10:55;;;;;;;6.88;4.38;;;22.40;72.20;;;;;;5007852;28;20037;-77
2021/06/05 07:13:21;;;;;;;7.45;4.60;;;22.50;72.30;;;;;;4997949;28;20379;-77
2021/06/05 07:15:47;;;;;;;5.45;4.30;;;22.60;72.10;;;;;;4994624;28;20026;-77
2021/06/05 07:18:15;;;;;;;6.30;4.22;;;22.70;70.90;;;;;;4997543;28;20037;-77
2021/06/05 07:20:40;;;;;;;6.47;4.00;;;22.70;70.50;;;;;;4999087;28;20074;-77
2021/06/05 07:23:07;;;;;;;8.65;4.22;;;22.80;69.80;;;;;;4996667;28;20111;-77
2021/06/05 07:25:33;;;;;;;6.70;4.07;;;22.90;69.10;;;;;;5002851;28;20050;-77
2021/06/05 07:28:29;;;;;;;5.18;4.13;;;22.90;69.70;;;;;;5012847;28;20022;-76
2021/06/05 07:30:55;;;;;;;4.97;3.67;;;23.00;68.70;;;;;;4996775;28;20042;-77
2021/06/05 07:33:21;;;;;;;5.85;3.95;;;23.10;68.40;;;;;;4995113;28;20539;-75
2021/06/05 07:35:47;;;;;;;5.68;4.07;;;23.20;67.60;;;;;;5008406;28;20037;-76
2021/06/05 07:38:14;;;;;;;4.85;3.83;;;23.30;67.40;;;;;;5008920;28;20026;-76
2021/06/05 07:40:40;;;;;;;6.18;4.15;;;23.30;66.80;;;;;;5012499;28;20096;-75
2021/06/05 07:43:07;;;;;;;6.22;3.72;;;23.40;66.90;;;;;;5017786;28;20032;-77
2021/06/05 07:45:32;;;;;;;5.47;3.42;;;23.50;66.40;;;;;;5024822;28;20116;-74
2021/06/05 07:47:58;;;;;;;4.38;3.63;;;23.50;65.80;;;;;;5014114;28;20037;-74
2021/06/05 07:50:24;;;;;;;6.03;3.25;;;23.60;65.00;;;;;;5015867;28;20180;-75
2021/06/05 07:52:50;;;;;;;4.15;3.33;;;23.60;64.40;;;;;;5023234;28;20022;-74
2021/06/05 07:55:16;;;;;;;6.35;3.75;;;23.70;64.60;;;;;;5022351;28;20101;-74
2021/06/05 07:57:42;;;;;;;5.65;3.78;;;23.70;63.90;;;;;;5019742;28;20085;-74
2021/06/05 08:00:12;;;;;;;6.53;3.78;;;23.70;63.80;;;;;;5023117;28;20069;-75
2021/06/05 08:02:37;;;;;;;5.70;3.72;;;23.80;64.60;;;;;;5006109;28;20520;-74
2021/06/05 08:05:05;;;;;;;5.75;3.60;;;23.90;64.00;;;;;;5008712;28;20053;-74
2021/06/05 08:07:30;;;;;;;5.78;3.33;;;24.00;63.90;;;;;;5007808;28;20037;-74
2021/06/05 08:09:56;;;;;;;4.75;3.97;;;24.00;63.80;;;;;;5008863;28;20395;-75
2021/06/05 08:12:21;;;;;;;6.28;3.45;;;24.20;62.90;;;;;;5011782;28;20455;-75
2021/06/05 08:14:47;;;;;;;4.88;3.70;;;24.20;62.50;;;;;;5011731;28;20038;-75
2021/06/05 08:17:30;;;;;;;6.00;3.80;;;24.30;62.70;;;;;;4995697;28;20041;-74
2021/06/05 08:20:18;;;;;;;6.60;3.38;;;24.40;61.40;;;;;;5012392;28;20036;-74
2021/06/05 08:23:03;;;;;;;5.35;3.60;;;24.40;61.70;;;;;;5014924;28;20552;-75
2021/06/05 08:25:49;;;;;;;6.82;3.25;;;24.50;60.30;;;;;;5018264;28;20044;-74
2021/06/05 08:28:34;;;;;;;7.32;3.20;;;24.50;60.20;;;;;;5010049;28;20084;-75
2021/06/05 08:31:20;;;;;;;4.95;3.40;;;24.60;60.20;;;;;;5012199;28;20041;-75
2021/06/05 08:34:05;;;;;;;4.45;3.70;;;24.70;59.30;;;;;;5008402;28;20091;-74
2021/06/05 08:36:50;;;;;;;10.57;3.72;;;24.70;59.10;;;;;;5015693;28;20041;-75
2021/06/05 08:39:34;;;;;;;3.78;2.90;;;24.70;58.40;;;;;;5016212;28;20500;-75
2021/06/05 08:42:28;;;;;;;4.47;3.28;;;24.70;58.20;;;;;;5011476;28;20103;-75
2021/06/05 08:45:16;;;;;;;4.68;3.53;;;24.70;57.70;;;;;;5013475;28;20088;-75
2021/06/05 08:48:03;;;;;;;4.82;3.28;;;24.70;57.70;;;;;;5006376;28;20488;-74
2021/06/05 08:50:47;;;;;;;3.95;3.28;;;24.80;58.00;;;;;;5002810;28;20536;-75
2021/06/05 08:53:32;;;;;;;;;;;24.70;57.70;;;;;;5010986;28;20080;-74
2021/06/05 08:56:26;;;;;;;4.70;3.63;;;24.80;58.20;;;;;;5019617;28;20377;-75
2021/06/05 08:59:15;;;;;;;4.57;3.65;;;24.80;58.30;;;;;;5007378;28;20168;-80
2021/06/05 09:02:00;;;;;;;7.60;3.40;;;25.00;58.20;;;;;;5011632;28;20137;-81
2021/06/05 09:04:26;;;;;;;5.70;3.53;;;25.10;57.50;;;;;;5004676;28;20114;-81
2021/06/05 09:06:57;;;;;;;4.47;3.20;;;25.00;56.80;;;;;;4994742;28;20117;-81
2021/06/05 09:09:28;;;;;;;3.90;3.33;;;25.10;57.10;;;;;;5007437;28;20037;-83
2021/06/05 09:11:53;;;;;;;5.78;3.20;;;25.20;56.60;;;;;;5011646;28;20086;-80
2021/06/05 09:14:19;;;;;;;4.70;3.33;;;25.30;56.70;;;;;;5026645;28;20026;-80
2021/06/05 09:16:48;;;;;;;4.47;3.25;;;25.40;57.10;;;;;;5017443;28;20475;-80
2021/06/05 09:19:35;;;;;;;7.05;4.13;;;25.50;56.80;;;;;;4994770;28;20041;-83
2021/06/05 09:22:19;;;;;;;4.82;3.55;;;25.60;57.30;;;;;;5004427;28;20406;-80
2021/06/05 09:25:17;;;;;;;;;;;25.70;56.40;;;;;;5012501;28;20029;-77
2021/06/05 09:28:12;;;;;;;4.60;3.42;;;25.80;56.30;;;;;;5010808;28;20266;-80
2021/06/05 09:31:18;;;;;;;4.15;3.40;;;25.90;56.30;;;;;;5005722;28;20084;-77
2021/06/05 09:34:12;;;;;;;4.88;3.63;;;26.00;55.60;;;;;;4992929;28;20061;-80
2021/06/05 09:36:56;;;;;;;5.10;3.45;;;26.00;55.00;;;;;;5008872;28;20037;-79
2021/06/05 09:39:47;;;;;;;4.55;3.50;;;26.10;55.30;;;;;;5007913;28;20044;-79
2021/06/05 09:42:41;;;;;;;6.10;3.30;;;26.20;54.80;;;;;;5010968;28;20096;-76
2021/06/05 09:45:34;;;;;;;5.55;3.22;;;26.20;54.50;;;;;;5010695;28;20382;-77
2021/06/05 09:48:31;;;;;;;6.32;3.72;;;26.20;55.00;;;;;;5009928;28;20137;-77
2021/06/05 09:51:35;;;;;;;4.35;3.13;;;26.30;53.90;;;;;;5007904;28;20419;-76
2021/06/05 09:54:36;;;;;;;4.93;3.47;;;26.30;53.80;;;;;;5016994;28;20087;-76
2021/06/05 09:57:23;;;;;;;8.25;3.40;;;26.30;53.70;;;;;;5018756;28;20036;-75
2021/06/05 10:00:13;;;;;;;5.78;3.50;;;26.30;53.10;;;;;;5023825;28;20091;-75
2021/06/05 10:03:32;;;;;;;6.60;4.13;;;26.30;53.20;;;;;;5004626;28;20032;-75
2021/06/05 10:06:33;;;;;;;5.28;3.70;;;26.40;53.30;;;;;;5012092;28;20032;-75
2021/06/05 10:09:26;;;;;;;5.78;3.65;;;26.50;52.40;;;;;;5016195;28;20513;-76
2021/06/05 10:12:23;;;;;;;4.07;3.40;;;26.50;52.20;;;;;;5012617;28;20091;-75
2021/06/05 10:15:17;;;;;;;6.43;3.42;;;26.40;51.80;;;;;;5024181;28;20512;-75
2021/06/05 10:18:10;;;;;;;6.07;3.42;;;26.40;52.20;;;;;;5016871;28;20413;-75
2021/06/05 10:21:08;;;;;;;4.97;3.25;;;26.40;52.70;;;;;;5008200;28;20553;-73
2021/06/05 10:23:58;;;;;;;4.40;3.47;;;26.50;51.90;;;;;;5015153;28;20044;-72
2021/06/05 10:26:45;;;;;;;4.72;3.40;;;26.50;51.80;;;;;;5004943;28;20083;-75
2021/06/05 10:29:47;;;;;;;4.85;3.70;;;26.50;51.30;;;;;;5014761;28;20033;-73
2021/06/05 10:32:40;;;;;;;6.13;3.63;;;26.40;51.90;;;;;;5008211;28;20454;-75
2021/06/05 10:35:36;;;;;;;3.85;3.28;;;26.40;51.60;;;;;;5010303;28;20060;-74
2021/06/05 10:38:36;;;;;;;4.72;3.50;;;26.30;51.90;;;;;;5006605;28;20144;-74
2021/06/05 10:41:27;;;;;;;5.88;3.42;;;26.40;52.00;;;;;;5005051;28;20069;-74
2021/06/05 10:44:12;;;;;;;7.85;3.97;;;26.50;51.60;;;;;;4994674;28;20037;-74
2021/06/05 10:47:00;;;;;;;4.95;3.83;;;26.60;52.10;;;;;;5007577;28;20308;-74
2021/06/05 10:50:03;;;;;;;5.82;3.30;;;26.60;51.70;;;;;;4994893;28;20100;-74
2021/06/05 10:52:58;;;;;;;7.47;3.78;;;26.60;51.30;;;;;;5010359;28;20072;-73
2021/06/05 10:55:44;;;;;;;4.93;3.88;;;26.60;51.80;;;;;;5012102;28;20033;-74
2021/06/05 10:58:34;;;;;;;4.53;4.05;;;26.70;51.30;;;;;;5011175;28;20414;-74
2021/06/05 11:01:21;;;;;;;4.85;3.50;;;26.70;51.60;;;;;;5007344;28;20407;-74
2021/06/05 11:04:31;;;;;;;4.75;3.47;;;26.80;52.00;;;;;;5002816;28;20088;-74
2021/06/05 11:07:26;;;;;;;5.47;3.47;;;26.90;51.40;;;;;;5013465;28;20036;-75
2021/06/05 11:10:11;;;;;;;7.68;5.03;;;26.90;51.20;;;;;;5010633;28;20044;-77
2021/06/05 11:12:56;;;;;;;6.25;3.95;;;26.90;50.60;;;;;;5012301;28;20087;-76
2021/06/05 11:15:55;;;;;;;4.10;3.10;;;26.80;50.70;;;;;;5008873;28;20478;-76
2021/06/05 11:18:52;;;;;;;5.80;3.55;;;26.80;51.00;;;;;;5001435;28;20068;-75
2021/06/05 11:21:44;;;;;;;5.97;3.40;;;26.80;51.10;;;;;;4994444;28;20053;-75
2021/06/05 11:24:28;;;;;;;5.00;3.55;;;26.80;50.80;;;;;;5012265;28;20124;-75
2021/06/05 11:27:36;;;;;;;5.28;3.28;;;26.80;50.60;;;;;;5010547;28;20045;-76
2021/06/05 11:30:20;;;;;;;6.53;3.92;;;26.90;50.80;;;;;;5012643;28;20072;-75
2021/06/05 11:33:09;;;;;;;7.35;3.72;;;27.00;50.40;;;;;;5005185;28;20085;-74
2021/06/05 11:35:58;;;;;;;4.55;3.00;;;27.00;50.80;;;;;;5010629;28;20445;-75
2021/06/05 11:38:46;;;;;;;4.60;3.33;;;27.10;50.40;;;;;;5034840;28;20442;-76
2021/06/05 11:41:48;;;;;;;3.92;3.03;;;27.10;49.90;;;;;;5020612;28;20072;-76
2021/06/05 11:44:41;;;;;;;4.30;3.40;;;27.10;49.30;;;;;;5004573;28;20611;-76
2021/06/05 11:47:27;;;;;;;4.45;3.30;;;27.10;49.00;;;;;;5008321;28;20037;-76
2021/06/05 11:50:32;;;;;;;4.95;3.20;;;27.10;49.00;;;;;;4997102;28;20037;-77
2021/06/05 11:53:33;;;;;;;7.75;3.20;;;27.20;49.00;;;;;;5011088;28;20188;-75
2021/06/05 11:56:31;;;;;;;6.00;3.30;;;27.30;48.60;;;;;;5012786;28;20048;-75
2021/06/05 11:59:34;;;;;;;4.35;3.30;;;27.30;48.50;;;;;;4998617;28;20135;-75
2021/06/05 12:02:31;;;;;;;5.32;3.08;;;27.40;48.30;;;;;;5008449;28;20044;-75
2021/06/05 12:05:22;;;;;;;5.53;3.20;;;27.40;47.80;;;;;;5008444;28;20100;-75
2021/06/05 12:08:28;;;;;;;6.05;2.92;;;27.40;48.10;;;;;;5007052;28;20817;-75
2021/06/05 12:11:21;;;;;;;3.65;2.67;;;27.50;48.00;;;;;;5026694;28;20519;-76
2021/06/05 12:14:15;;;;;;;3.55;3.15;;;27.60;47.40;;;;;;5013243;28;20509;-75
2021/06/05 12:16:59;;;;;;;4.00;3.20;;;27.70;47.50;;;;;;4994402;28;20136;-75
2021/06/05 12:19:43;;;;;;;4.38;3.00;;;27.80;47.80;;;;;;5012480;28;20084;-76
2021/06/05 12:22:30;;;;;;;3.47;3.17;;;27.90;47.70;;;;;;5011877;28;20061;-74
2021/06/05 12:25:41;;;;;;;7.10;2.80;;;28.00;47.60;;;;;;5010403;28;20036;-75
2021/06/05 12:28:31;;;;;;;3.28;2.72;;;28.10;47.00;;;;;;5013548;28;20029;-75
2021/06/05 12:31:27;;;;;;;6.45;2.97;;;28.20;46.90;;;;;;5011890;28;20076;-75
2021/06/05 12:34:36;;;;;;;4.80;2.90;;;28.30;45.70;;;;;;5005627;28;20121;-75
2021/06/05 12:37:24;;;;;;;6.07;3.22;;;28.40;46.00;;;;;;5016520;28;20527;-75
2021/06/05 12:40:23;;;;;;;3.97;3.05;;;28.50;46.40;;;;;;5016774;28;20033;-75
2021/06/05 12:43:11;;;;;;;4.47;2.63;;;28.70;46.10;;;;;;5011813;28;20521;-75
2021/06/05 12:46:04;;;;;;;4.53;3.40;;;28.70;45.90;;;;;;5011970;28;20057;-75
2021/06/05 12:48:51;;;;;;;3.92;2.90;;;28.90;45.70;;;;;;4993607;28;20529;-75
2021/06/05 12:51:46;;;;;;;4.20;2.70;;;29.00;46.10;;;;;;5013262;28;20386;-74
2021/06/05 12:54:40;;;;;;;4.85;2.80;;;29.10;45.30;;;;;;5010058;28;20146;-75
2021/06/05 12:57:33;;;;;;;4.78;2.78;;;29.20;45.40;;;;;;5010451;28;20052;-74
2021/06/05 13:00:29;;;;;;;4.28;3.22;;;29.30;45.40;;;;;;5013623;28;20110;-74
2021/06/05 13:03:14;;;;;;;3.90;2.60;;;29.40;44.40;;;;;;5010903;28;20049;-74
2021/06/05 13:06:22;;;;;;;5.40;3.13;;;29.50;45.20;;;;;;5011706;28;20053;-73
2021/06/05 13:09:31;;;;;;;4.18;2.60;;;29.70;44.90;;;;;;5008670;28;20129;-74
2021/06/05 13:12:18;;;;;;;3.53;2.60;;;29.70;43.90;;;;;;5007002;28;20682;-70
2021/06/05 13:15:33;;;;;;;8.10;3.33;;;29.70;43.20;;;;;;5010896;28;20131;-70
2021/06/05 13:18:23;;;;;;;;;;;29.60;43.20;;;;;;5004687;28;20568;-69
2021/06/05 13:21:29;;;;;;;5.63;3.00;;;29.70;43.50;;;;;;5026225;28;19937;-69
2021/06/05 13:24:20;;;;;;;4.40;2.78;;;29.70;43.50;;;;;;4999942;28;20100;-69
2021/06/05 13:27:22;;;;;;;3.40;2.90;;;29.80;43.40;;;;;;5007987;28;20052;-69
2021/06/05 13:30:38;;;;;;;4.18;2.53;;;29.90;43.10;;;;;;4992954;28;20456;-71
2021/06/05 13:33:42;;;;;;;4.25;2.70;;;29.90;43.20;;;;;;4997377;28;20414;-69
2021/06/05 13:36:28;;;;;;;4.05;3.03;;;30.00;42.80;;;;;;5000587;28;20184;-68
2021/06/05 13:39:17;;;;;;;3.42;2.83;;;30.00;42.10;;;;;;4999987;28;20088;-69
2021/06/05 13:42:01;;;;;;;5.75;2.70;;;30.00;42.00;;;;;;4995143;28;20045;-69
2021/06/05 13:44:45;;;;;;;3.97;2.63;;;30.10;41.90;;;;;;4996213;28;20076;-68
2021/06/05 13:47:30;;;;;;;3.63;2.83;;;30.20;41.90;;;;;;5012675;28;20065;-69